sensor_id;sensor_type;location;lat;lon;timestamp;pressure;altitude;pressure_sealevel;temperature;humidity
70544;BME280;58097;48.364;-1.224;2023-04-08T00:02:19;100153.81;;;8.55;68.42
70544;BME280;58097;48.364;-1.224;2023-04-08T00:04:45;100157.75;;;8.52;70.79
70544;BME280;58097;48.364;-1.224;2023-04-08T00:07:10;100160.06;;;8.57;69.72
70544;BME280;58097;48.364;-1.224;2023-04-08T00:09:36;100158.03;;;8.59;70.65
70544;BME280;58097;48.364;-1.224;2023-04-08T00:12:01;100165.13;;;8.61;69.58
70544;BME280;58097;48.364;-1.224;2023-04-08T00:14:26;100156.34;;;8.67;69.24
70544;BME280;58097;48.364;-1.224;2023-04-08T00:16:52;100162.44;;;8.71;70.30
70544;BME280;58097;48.364;-1.224;2023-04-08T00:19:17;100174.03;;;8.75;69.56
70544;BME280;58097;48.364;-1.224;2023-04-08T00:21:42;100176.63;;;8.76;69.75
70544;BME280;58097;48.364;-1.224;2023-04-08T00:24:08;100179.25;;;8.78;69.47
70544;BME280;58097;48.364;-1.224;2023-04-08T00:26:33;100173.44;;;8.71;70.38
70544;BME280;58097;48.364;-1.224;2023-04-08T00:28:59;100178.81;;;8.73;71.00
70544;BME280;58097;48.364;-1.224;2023-04-08T00:31:24;100177.22;;;8.70;71.34
70544;BME280;58097;48.364;-1.224;2023-04-08T00:33:49;100178.38;;;8.77;69.75
70544;BME280;58097;48.364;-1.224;2023-04-08T00:36:15;100178.66;;;8.74;70.77
70544;BME280;58097;48.364;-1.224;2023-04-08T00:38:40;100178.38;;;8.77;69.81
70544;BME280;58097;48.364;-1.224;2023-04-08T00:41:05;100173.75;;;8.78;70.82
70544;BME280;58097;48.364;-1.224;2023-04-08T00:43:31;100179.53;;;8.75;71.01
70544;BME280;58097;48.364;-1.224;2023-04-08T00:45:56;100168.50;;;8.75;69.70
70544;BME280;58097;48.364;-1.224;2023-04-08T00:48:22;100173.00;;;8.76;70.50
70544;BME280;58097;48.364;-1.224;2023-04-08T00:50:47;100178.38;;;8.77;69.37
70544;BME280;58097;48.364;-1.224;2023-04-08T00:53:17;100177.78;;;8.74;71.04
70544;BME280;58097;48.364;-1.224;2023-04-08T00:55:43;100177.47;;;8.67;71.19
70544;BME280;58097;48.364;-1.224;2023-04-08T00:58:08;100168.78;;;8.62;71.59
70544;BME280;58097;48.364;-1.224;2023-04-08T01:00:35;100179.19;;;8.58;71.37
70544;BME280;58097;48.364;-1.224;2023-04-08T01:06:15;100172.09;;;8.65;70.00
70544;BME280;58097;48.364;-1.224;2023-04-08T01:08:44;100179.78;;;8.62;70.30
70544;BME280;58097;48.364;-1.224;2023-04-08T01:11:12;100176.31;;;8.60;69.63
70544;BME280;58097;48.364;-1.224;2023-04-08T01:13:39;100169.78;;;8.61;69.88
70544;BME280;58097;48.364;-1.224;2023-04-08T01:16:08;100172.97;;;8.56;70.59
70544;BME280;58097;48.364;-1.224;2023-04-08T01:18:35;100168.34;;;8.57;69.93
70544;BME280;58097;48.364;-1.224;2023-04-08T01:21:02;100171.66;;;8.51;70.58
70544;BME280;58097;48.364;-1.224;2023-04-08T01:23:56;100172.25;;;8.54;69.45
70544;BME280;58097;48.364;-1.224;2023-04-08T01:26:25;100175.13;;;8.53;70.21
70544;BME280;58097;48.364;-1.224;2023-04-08T01:28:52;100178.03;;;8.42;72.04
70544;BME280;58097;48.364;-1.224;2023-04-08T01:31:21;100173.69;;;8.39;71.83
70544;BME280;58097;48.364;-1.224;2023-04-08T01:33:49;100180.78;;;8.42;70.67
70544;BME280;58097;48.364;-1.224;2023-04-08T01:36:16;100178.75;;;8.44;70.00
70544;BME280;58097;48.364;-1.224;2023-04-08T01:38:42;100173.09;;;8.45;70.66
70544;BME280;58097;48.364;-1.224;2023-04-08T01:41:09;100177.59;;;8.46;70.01
70544;BME280;58097;48.364;-1.224;2023-04-08T01:43:35;100182.97;;;8.48;70.03
70544;BME280;58097;48.364;-1.224;2023-04-08T01:46:01;100185.72;;;8.48;69.44
70544;BME280;58097;48.364;-1.224;2023-04-08T01:48:27;100179.19;;;8.49;69.09
70544;BME280;58097;48.364;-1.224;2023-04-08T01:50:53;100185.72;;;8.48;70.59
70544;BME280;58097;48.364;-1.224;2023-04-08T01:53:20;100195.13;;;8.45;69.15
70544;BME280;58097;48.364;-1.224;2023-04-08T01:55:45;100185.00;;;8.46;69.73
70544;BME280;58097;48.364;-1.224;2023-04-08T01:58:18;100191.38;;;8.46;69.42
70544;BME280;58097;48.364;-1.224;2023-04-08T02:00:45;100186.00;;;8.45;69.78
70544;BME280;58097;48.364;-1.224;2023-04-08T02:03:11;100183.53;;;8.42;69.47
70544;BME280;58097;48.364;-1.224;2023-04-08T02:05:38;100191.19;;;8.38;69.86
70544;BME280;58097;48.364;-1.224;2023-04-08T02:08:04;100190.44;;;8.36;70.38
70544;BME280;58097;48.364;-1.224;2023-04-08T02:10:29;100188.09;;;8.31;70.95
70544;BME280;58097;48.364;-1.224;2023-04-08T02:12:55;100189.38;;;8.27;70.67
70544;BME280;58097;48.364;-1.224;2023-04-08T02:15:21;100182.00;;;8.28;70.40
70544;BME280;58097;48.364;-1.224;2023-04-08T02:17:49;100184.59;;;8.20;71.59
70544;BME280;58097;48.364;-1.224;2023-04-08T02:20:23;100188.78;;;8.24;71.17
70544;BME280;58097;48.364;-1.224;2023-04-08T02:23:06;100189.81;;;8.23;71.03
70544;BME280;58097;48.364;-1.224;2023-04-08T02:25:35;100188.78;;;8.24;70.67
70544;BME280;58097;48.364;-1.224;2023-04-08T02:28:03;100180.81;;;8.21;70.18
70544;BME280;58097;48.364;-1.224;2023-04-08T02:30:30;100186.03;;;8.14;71.63
70544;BME280;58097;48.364;-1.224;2023-04-08T02:32:57;100187.16;;;8.12;71.75
70544;BME280;58097;48.364;-1.224;2023-04-08T02:35:22;100185.69;;;8.07;72.40
70544;BME280;58097;48.364;-1.224;2023-04-08T02:37:49;100187.84;;;8.04;72.02
70544;BME280;58097;48.364;-1.224;2023-04-08T02:40:25;100186.81;;;8.05;71.92
70544;BME280;58097;48.364;-1.224;2023-04-08T02:42:51;100189.88;;;8.02;72.21
70544;BME280;58097;48.364;-1.224;2023-04-08T02:45:17;100188.56;;;8.06;71.59
70544;BME280;58097;48.364;-1.224;2023-04-08T02:47:42;100185.22;;;8.02;72.11
70544;BME280;58097;48.364;-1.224;2023-04-08T02:50:09;100189.31;;;8.08;71.12
70544;BME280;58097;48.364;-1.224;2023-04-08T02:52:34;100192.81;;;8.10;71.71
70544;BME280;58097;48.364;-1.224;2023-04-08T02:55:00;100188.03;;;8.12;71.04
70544;BME280;58097;48.364;-1.224;2023-04-08T02:57:25;100194.94;;;8.06;72.03
70544;BME280;58097;48.364;-1.224;2023-04-08T02:59:50;100194.06;;;8.06;71.27
70544;BME280;58097;48.364;-1.224;2023-04-08T03:02:16;100187.09;;;8.02;72.03
70544;BME280;58097;48.364;-1.224;2023-04-08T03:04:41;100187.09;;;8.02;71.98
70544;BME280;58097;48.364;-1.224;2023-04-08T03:07:06;100180.59;;;8.03;71.54
70544;BME280;58097;48.364;-1.224;2023-04-08T03:09:32;100183.91;;;7.97;72.46
70544;BME280;58097;48.364;-1.224;2023-04-08T03:11:57;100181.28;;;7.95;72.70
70544;BME280;58097;48.364;-1.224;2023-04-08T03:14:22;100180.97;;;7.89;73.00
70544;BME280;58097;48.364;-1.224;2023-04-08T03:16:48;100185.94;;;7.95;71.85
70544;BME280;58097;48.364;-1.224;2023-04-08T03:19:13;100197.03;;;7.84;74.20
70544;BME280;58097;48.364;-1.224;2023-04-08T03:21:39;100187.34;;;7.89;72.49
70544;BME280;58097;48.364;-1.224;2023-04-08T03:24:04;100189.09;;;7.90;73.18
70544;BME280;58097;48.364;-1.224;2023-04-08T03:26:29;100199.50;;;7.87;72.73
70544;BME280;58097;48.364;-1.224;2023-04-08T03:28:55;100197.03;;;7.84;73.57
70544;BME280;58097;48.364;-1.224;2023-04-08T03:31:20;100200.78;;;7.83;73.55
70544;BME280;58097;48.364;-1.224;2023-04-08T03:33:46;100205.44;;;7.82;72.85
70544;BME280;58097;48.364;-1.224;2023-04-08T03:36:11;100205.16;;;7.85;72.87
70544;BME280;58097;48.364;-1.224;2023-04-08T03:38:37;100209.06;;;7.83;73.85
70544;BME280;58097;48.364;-1.224;2023-04-08T03:41:02;100211.53;;;7.86;72.62
70544;BME280;58097;48.364;-1.224;2023-04-08T03:43:27;100216.69;;;7.79;74.23
70544;BME280;58097;48.364;-1.224;2023-04-08T03:45:54;100220.19;;;7.81;73.36
70544;BME280;58097;48.364;-1.224;2023-04-08T03:48:19;100218.91;;;7.85;72.83
70544;BME280;58097;48.364;-1.224;2023-04-08T03:51:39;100214.19;;;7.76;73.91
70544;BME280;58097;48.364;-1.224;2023-04-08T03:54:04;100220.19;;;7.81;73.37
70544;BME280;58097;48.364;-1.224;2023-04-08T03:56:30;100222.94;;;7.81;73.23
70544;BME280;58097;48.364;-1.224;2023-04-08T03:58:55;100225.69;;;7.81;72.86
70544;BME280;58097;48.364;-1.224;2023-04-08T04:01:21;100224.81;;;7.81;72.65
70544;BME280;58097;48.364;-1.224;2023-04-08T04:03:46;100220.06;;;7.83;72.76
70544;BME280;58097;48.364;-1.224;2023-04-08T04:06:11;100219.91;;;7.84;72.18
70544;BME280;58097;48.364;-1.224;2023-04-08T04:08:37;100225.28;;;7.86;71.66
70544;BME280;58097;48.364;-1.224;2023-04-08T04:11:02;100219.78;;;7.86;71.68
70544;BME280;58097;48.364;-1.224;2023-04-08T04:13:28;100216.56;;;7.81;73.29
70544;BME280;58097;48.364;-1.224;2023-04-08T04:15:53;100223.31;;;7.76;73.10
70544;BME280;58097;48.364;-1.224;2023-04-08T04:18:18;100229.56;;;7.78;71.79
70544;BME280;58097;48.364;-1.224;2023-04-08T04:20:44;100233.31;;;7.77;72.30
70544;BME280;58097;48.364;-1.224;2023-04-08T04:23:09;100230.84;;;7.74;73.12
70544;BME280;58097;48.364;-1.224;2023-04-08T04:25:35;100234.47;;;7.75;73.25
70544;BME280;58097;48.364;-1.224;2023-04-08T04:28:00;100238.81;;;7.77;72.69
70544;BME280;58097;48.364;-1.224;2023-04-08T04:30:27;100242.41;;;7.68;73.94
70544;BME280;58097;48.364;-1.224;2023-04-08T04:32:52;100239.78;;;7.67;72.83
70544;BME280;58097;48.364;-1.224;2023-04-08T04:35:17;100243.06;;;7.61;73.70
70544;BME280;58097;48.364;-1.224;2023-04-08T04:37:43;100242.22;;;7.60;74.41
70544;BME280;58097;48.364;-1.224;2023-04-08T04:40:08;100237.72;;;7.59;73.81
70544;BME280;58097;48.364;-1.224;2023-04-08T04:42:34;100244.22;;;7.58;73.72
70544;BME280;58097;48.364;-1.224;2023-04-08T04:44:59;100246.84;;;7.60;73.70
70544;BME280;58097;48.364;-1.224;2023-04-08T04:47:25;100243.84;;;7.52;74.35
70544;BME280;58097;48.364;-1.224;2023-04-08T04:49:50;100242.53;;;7.46;74.95
70544;BME280;58097;48.364;-1.224;2023-04-08T04:52:16;100250.25;;;7.52;73.37
70544;BME280;58097;48.364;-1.224;2023-04-08T04:54:41;100251.75;;;7.56;73.16
70544;BME280;58097;48.364;-1.224;2023-04-08T04:57:06;100251.75;;;7.56;73.12
70544;BME280;58097;48.364;-1.224;2023-04-08T04:59:32;100252.47;;;7.58;72.62
70544;BME280;58097;48.364;-1.224;2023-04-08T05:01:57;100255.09;;;7.60;72.34
70544;BME280;58097;48.364;-1.224;2023-04-08T05:04:23;100259.31;;;7.64;72.80
70544;BME280;58097;48.364;-1.224;2023-04-08T05:06:49;100264.69;;;7.65;72.53
70544;BME280;58097;48.364;-1.224;2023-04-08T05:09:15;100265.97;;;7.61;72.31
70544;BME280;58097;48.364;-1.224;2023-04-08T05:11:40;100267.84;;;7.61;72.15
70544;BME280;58097;48.364;-1.224;2023-04-08T05:14:06;100265.09;;;7.61;72.02
70544;BME280;58097;48.364;-1.224;2023-04-08T05:16:32;100264.94;;;7.62;72.32
70544;BME280;58097;48.364;-1.224;2023-04-08T05:18:57;100266.97;;;7.60;72.76
70544;BME280;58097;48.364;-1.224;2023-04-08T05:21:23;100268.84;;;7.60;72.42
70544;BME280;58097;48.364;-1.224;2023-04-08T05:23:48;100265.34;;;7.58;72.16
70544;BME280;58097;48.364;-1.224;2023-04-08T05:26:17;100277.50;;;7.55;72.36
70544;BME280;58097;48.364;-1.224;2023-04-08T05:28:43;100271.88;;;7.57;72.69
70544;BME280;58097;48.364;-1.224;2023-04-08T05:31:08;100275.88;;;7.53;71.85
70544;BME280;58097;48.364;-1.224;2023-04-08T05:33:34;100274.25;;;7.50;71.86
70544;BME280;58097;48.364;-1.224;2023-04-08T05:35:59;100274.25;;;7.50;72.13
70544;BME280;58097;48.364;-1.224;2023-04-08T05:38:24;100284.38;;;7.50;71.75
70544;BME280;58097;48.364;-1.224;2023-04-08T05:40:50;100287.78;;;7.42;73.51
70544;BME280;58097;48.364;-1.224;2023-04-08T05:43:15;100284.03;;;7.43;72.58
70544;BME280;58097;48.364;-1.224;2023-04-08T05:45:41;100284.91;;;7.43;72.28
70544;BME280;58097;48.364;-1.224;2023-04-08T05:48:06;100285.03;;;7.42;72.26
70544;BME280;58097;48.364;-1.224;2023-04-08T05:50:34;100290.94;;;7.37;71.87
70544;BME280;58097;48.364;-1.224;2023-04-08T05:52:59;100295.97;;;7.32;71.38
70544;BME280;58097;48.364;-1.224;2023-04-08T05:55:25;100290.88;;;7.28;71.20
70544;BME280;58097;48.364;-1.224;2023-04-08T05:57:50;100298.75;;;7.21;71.08
70544;BME280;58097;48.364;-1.224;2023-04-08T06:00:15;100294.50;;;7.17;71.19
70544;BME280;58097;48.364;-1.224;2023-04-08T06:02:41;100293.78;;;7.15;71.30
70544;BME280;58097;48.364;-1.224;2023-04-08T06:05:07;100300.28;;;7.14;71.67
70544;BME280;58097;48.364;-1.224;2023-04-08T06:07:32;100303.63;;;7.18;73.28
70544;BME280;58097;48.364;-1.224;2023-04-08T06:09:58;100305.63;;;7.27;73.59
70544;BME280;58097;48.364;-1.224;2023-04-08T06:12:23;100305.31;;;7.41;73.92
70544;BME280;58097;48.364;-1.224;2023-04-08T06:14:53;100309.63;;;7.55;74.90
70544;BME280;58097;48.364;-1.224;2023-04-08T06:17:19;100308.41;;;7.68;74.47
70544;BME280;58097;48.364;-1.224;2023-04-08T06:19:45;100309.75;;;7.74;74.92
70544;BME280;58097;48.364;-1.224;2023-04-08T06:22:10;100316.59;;;7.80;74.75
70544;BME280;58097;48.364;-1.224;2023-04-08T06:24:35;100311.78;;;7.93;74.31
70544;BME280;58097;48.364;-1.224;2023-04-08T06:27:01;100309.97;;;8.03;74.38
70544;BME280;58097;48.364;-1.224;2023-04-08T06:29:27;100312.38;;;8.17;73.83
70544;BME280;58097;48.364;-1.224;2023-04-08T06:31:54;100313.84;;;8.21;73.99
70544;BME280;58097;48.364;-1.224;2023-04-08T06:34:19;100318.28;;;8.33;73.25
70544;BME280;58097;48.364;-1.224;2023-04-08T06:36:45;100314.00;;;8.41;73.30
70544;BME280;58097;48.364;-1.224;2023-04-08T06:39:10;100321.00;;;8.54;73.10
70544;BME280;58097;48.364;-1.224;2023-04-08T06:41:35;100323.78;;;8.64;73.11
70544;BME280;58097;48.364;-1.224;2023-04-08T06:44:01;100331.97;;;8.75;72.72
70544;BME280;58097;48.364;-1.224;2023-04-08T06:46:26;100329.09;;;8.86;72.71
70544;BME280;58097;48.364;-1.224;2023-04-08T06:48:51;100333.66;;;9.07;72.72
70544;BME280;58097;48.364;-1.224;2023-04-08T06:51:17;100328.44;;;9.23;72.56
70544;BME280;58097;48.364;-1.224;2023-04-08T06:53:42;100330.50;;;9.40;72.53
70544;BME280;58097;48.364;-1.224;2023-04-08T06:56:08;100334.28;;;9.49;72.15
70544;BME280;58097;48.364;-1.224;2023-04-08T06:58:33;100329.81;;;9.57;72.11
70544;BME280;58097;48.364;-1.224;2023-04-08T07:00:59;100336.47;;;9.74;72.38
70544;BME280;58097;48.364;-1.224;2023-04-08T07:03:25;100339.84;;;9.87;72.25
70544;BME280;58097;48.364;-1.224;2023-04-08T07:05:51;100343.88;;;10.03;71.92
70544;BME280;58097;48.364;-1.224;2023-04-08T07:08:17;100341.81;;;10.05;71.94
70544;BME280;58097;48.364;-1.224;2023-04-08T07:10:42;100343.72;;;10.04;71.40
70544;BME280;58097;48.364;-1.224;2023-04-08T07:13:07;100345.63;;;10.13;71.27
70544;BME280;58097;48.364;-1.224;2023-04-08T07:15:32;100351.16;;;10.23;71.11
70544;BME280;58097;48.364;-1.224;2023-04-08T07:17:58;100349.81;;;10.17;70.59
70544;BME280;58097;48.364;-1.224;2023-04-08T07:20:24;100349.53;;;10.30;70.89
70544;BME280;58097;48.364;-1.224;2023-04-08T07:22:50;100344.72;;;10.42;70.98
70544;BME280;58097;48.364;-1.224;2023-04-08T07:25:15;100352.84;;;10.43;70.11
70544;BME280;58097;48.364;-1.224;2023-04-08T07:27:41;100349.63;;;10.48;71.07
70544;BME280;58097;48.364;-1.224;2023-04-08T07:30:07;100355.88;;;10.40;70.46
70544;BME280;58097;48.364;-1.224;2023-04-08T07:32:33;100352.25;;;10.40;70.28
70544;BME280;58097;48.364;-1.224;2023-04-08T07:34:59;100352.50;;;10.56;70.54
70544;BME280;58097;48.364;-1.224;2023-04-08T07:37:25;100361.91;;;10.73;70.84
70544;BME280;58097;48.364;-1.224;2023-04-08T07:39:51;100364.53;;;10.74;69.51
70544;BME280;58097;48.364;-1.224;2023-04-08T07:42:16;100362.78;;;10.73;69.51
70544;BME280;58097;48.364;-1.224;2023-04-08T07:44:42;100367.81;;;10.88;70.46
70544;BME280;58097;48.364;-1.224;2023-04-08T07:47:08;100368.91;;;11.04;70.11
70544;BME280;58097;48.364;-1.224;2023-04-08T07:49:33;100378.66;;;11.26;70.51
70544;BME280;58097;48.364;-1.224;2023-04-08T07:51:59;100374.69;;;11.38;68.70
70544;BME280;58097;48.364;-1.224;2023-04-08T07:54:24;100374.44;;;11.32;68.45
70544;BME280;58097;48.364;-1.224;2023-04-08T07:56:50;100380.53;;;11.53;68.92
70544;BME280;58097;48.364;-1.224;2023-04-08T07:59:15;100383.59;;;11.60;67.71
70544;BME280;58097;48.364;-1.224;2023-04-08T08:01:40;100381.31;;;11.45;66.30
70544;BME280;58097;48.364;-1.224;2023-04-08T08:04:06;100382.13;;;11.38;66.64
70544;BME280;58097;48.364;-1.224;2023-04-08T08:06:31;100387.88;;;11.44;66.83
70544;BME280;58097;48.364;-1.224;2023-04-08T08:08:57;100394.50;;;11.61;68.24
70544;BME280;58097;48.364;-1.224;2023-04-08T08:11:22;100395.56;;;11.78;68.45
70544;BME280;58097;48.364;-1.224;2023-04-08T08:13:48;100387.91;;;11.90;66.63
70544;BME280;58097;48.364;-1.224;2023-04-08T08:16:13;100396.41;;;11.78;66.20
70544;BME280;58097;48.364;-1.224;2023-04-08T08:18:39;100401.03;;;11.88;67.40
70544;BME280;58097;48.364;-1.224;2023-04-08T08:21:05;100398.72;;;11.83;65.65
70544;BME280;58097;48.364;-1.224;2023-04-08T08:23:31;100392.88;;;11.86;66.23
70544;BME280;58097;48.364;-1.224;2023-04-08T08:26:04;100395.41;;;11.97;65.91
70544;BME280;58097;48.364;-1.224;2023-04-08T08:28:39;100395.66;;;11.86;66.11
70544;BME280;58097;48.364;-1.224;2023-04-08T08:31:04;100392.81;;;11.96;66.88
70544;BME280;58097;48.364;-1.224;2023-04-08T08:33:31;100386.72;;;11.92;65.42
70544;BME280;58097;48.364;-1.224;2023-04-08T08:35:56;100389.31;;;11.94;65.77
70544;BME280;58097;48.364;-1.224;2023-04-08T08:38:25;100396.56;;;12.13;66.34
70544;BME280;58097;48.364;-1.224;2023-04-08T08:40:55;100397.94;;;12.08;63.95
70544;BME280;58097;48.364;-1.224;2023-04-08T08:43:21;100379.78;;;12.14;64.92
70544;BME280;58097;48.364;-1.224;2023-04-08T08:45:47;100391.03;;;12.30;64.83
70544;BME280;58097;48.364;-1.224;2023-04-08T08:48:12;100387.75;;;12.35;63.64
70544;BME280;58097;48.364;-1.224;2023-04-08T08:50:37;100392.38;;;12.44;64.35
70544;BME280;58097;48.364;-1.224;2023-04-08T08:53:03;100385.34;;;12.58;64.39
70544;BME280;58097;48.364;-1.224;2023-04-08T08:55:32;100389.09;;;12.75;63.74
70544;BME280;58097;48.364;-1.224;2023-04-08T08:57:58;100388.44;;;12.81;62.50
70544;BME280;58097;48.364;-1.224;2023-04-08T09:00:38;100394.75;;;12.91;62.37
70544;BME280;58097;48.364;-1.224;2023-04-08T09:03:25;100392.75;;;13.09;61.70
70544;BME280;58097;48.364;-1.224;2023-04-08T09:08:27;100386.09;;;12.94;60.06
70544;BME280;58097;48.364;-1.224;2023-04-08T09:10:53;100381.63;;;13.01;59.52
70544;BME280;58097;48.364;-1.224;2023-04-08T09:13:21;100389.13;;;13.09;59.76
70544;BME280;58097;48.364;-1.224;2023-04-08T09:16:04;100384.81;;;13.14;59.80
70544;BME280;58097;48.364;-1.224;2023-04-08T09:18:31;100389.38;;;13.23;60.41
70544;BME280;58097;48.364;-1.224;2023-04-08T09:21:01;100395.28;;;13.20;58.70
70544;BME280;58097;48.364;-1.224;2023-04-08T09:26:07;100393.81;;;13.42;58.40
70544;BME280;58097;48.364;-1.224;2023-04-08T09:28:33;100397.53;;;13.59;58.33
70544;BME280;58097;48.364;-1.224;2023-04-08T09:30:58;100408.66;;;13.67;56.86
70544;BME280;58097;48.364;-1.224;2023-04-08T09:33:30;100404.47;;;13.71;57.46
70544;BME280;58097;48.364;-1.224;2023-04-08T09:35:58;100402.41;;;13.73;55.42
70544;BME280;58097;48.364;-1.224;2023-04-08T09:38:23;100411.25;;;13.69;58.02
70544;BME280;58097;48.364;-1.224;2023-04-08T09:40:49;100406.41;;;13.79;57.72
70544;BME280;58097;48.364;-1.224;2023-04-08T09:43:17;100412.69;;;13.89;57.43
70544;BME280;58097;48.364;-1.224;2023-04-08T09:45:47;100418.78;;;13.92;58.04
70544;BME280;58097;48.364;-1.224;2023-04-08T09:48:17;100422.09;;;13.96;57.63
70544;BME280;58097;48.364;-1.224;2023-04-08T09:50:49;100424.69;;;13.98;55.75
70544;BME280;58097;48.364;-1.224;2023-04-08T09:53:19;100429.22;;;14.07;56.25
70544;BME280;58097;48.364;-1.224;2023-04-08T09:55:52;100421.22;;;14.04;56.24
70544;BME280;58097;48.364;-1.224;2023-04-08T09:58:29;100422.78;;;14.14;57.13
70544;BME280;58097;48.364;-1.224;2023-04-08T10:00:58;100417.09;;;14.32;57.24
70544;BME280;58097;48.364;-1.224;2023-04-08T10:05:51;100421.44;;;14.35;55.99
70544;BME280;58097;48.364;-1.224;2023-04-08T10:08:18;100417.09;;;14.32;54.93
70544;BME280;58097;48.364;-1.224;2023-04-08T10:10:44;100417.44;;;14.37;55.83
70544;BME280;58097;48.364;-1.224;2023-04-08T10:13:10;100424.59;;;14.48;56.01
70544;BME280;58097;48.364;-1.224;2023-04-08T10:15:37;100423.00;;;14.70;56.82
70544;BME280;58097;48.364;-1.224;2023-04-08T10:23:11;100418.84;;;14.66;54.29
70544;BME280;58097;48.364;-1.224;2023-04-08T10:25:39;100421.41;;;14.92;55.25
70544;BME280;58097;48.364;-1.224;2023-04-08T10:33:09;100416.69;;;15.00;51.03
70544;BME280;58097;48.364;-1.224;2023-04-08T10:35:35;100410.78;;;14.95;50.37
70544;BME280;58097;48.364;-1.224;2023-04-08T10:38:02;100411.13;;;15.00;53.94
70544;BME280;58097;48.364;-1.224;2023-04-08T10:40:27;100420.03;;;14.87;51.39
70544;BME280;58097;48.364;-1.224;2023-04-08T10:42:56;100414.13;;;14.91;50.89
70544;BME280;58097;48.364;-1.224;2023-04-08T10:45:22;100408.69;;;14.97;52.79
70544;BME280;58097;48.364;-1.224;2023-04-08T10:47:48;100409.91;;;15.03;51.42
70544;BME280;58097;48.364;-1.224;2023-04-08T10:50:18;100411.97;;;15.17;49.99
70544;BME280;58097;48.364;-1.224;2023-04-08T10:52:53;100412.34;;;14.98;48.62
70544;BME280;58097;48.364;-1.224;2023-04-08T10:55:25;100404.91;;;14.90;51.13
70544;BME280;58097;48.364;-1.224;2023-04-08T10:57:54;100414.38;;;15.20;51.33
70544;BME280;58097;48.364;-1.224;2023-04-08T11:00:40;100408.13;;;15.18;50.43
70544;BME280;58097;48.364;-1.224;2023-04-08T11:03:07;100396.44;;;15.23;50.92
70544;BME280;58097;48.364;-1.224;2023-04-08T11:05:34;100394.16;;;15.26;49.84
70544;BME280;58097;48.364;-1.224;2023-04-08T11:08:01;100385.81;;;15.34;50.25
70544;BME280;58097;48.364;-1.224;2023-04-08T11:10:27;100393.38;;;15.09;48.54
70544;BME280;58097;48.364;-1.224;2023-04-08T11:12:56;100394.19;;;15.18;47.90
70544;BME280;58097;48.364;-1.224;2023-04-08T11:15:28;100393.69;;;15.14;47.98
70544;BME280;58097;48.364;-1.224;2023-04-08T11:17:54;100392.69;;;15.07;47.41
70544;BME280;58097;48.364;-1.224;2023-04-08T11:20:19;100386.03;;;15.16;47.68
70544;BME280;58097;48.364;-1.224;2023-04-08T11:22:46;100384.97;;;15.17;48.72
70544;BME280;58097;48.364;-1.224;2023-04-08T11:25:12;100380.00;;;15.44;51.49
70544;BME280;58097;48.364;-1.224;2023-04-08T11:27:37;100388.63;;;15.65;51.28
70544;BME280;58097;48.364;-1.224;2023-04-08T11:30:05;100376.47;;;15.50;46.38
70544;BME280;58097;48.364;-1.224;2023-04-08T11:32:31;100378.50;;;15.72;50.74
70544;BME280;58097;48.364;-1.224;2023-04-08T11:34:59;100379.59;;;15.86;48.90
70544;BME280;58097;48.364;-1.224;2023-04-08T11:37:26;100375.59;;;15.89;49.19
70544;BME280;58097;48.364;-1.224;2023-04-08T11:40:00;100368.94;;;15.98;49.27
70544;BME280;58097;48.364;-1.224;2023-04-08T11:44:51;100370.47;;;16.23;49.62
70544;BME280;58097;48.364;-1.224;2023-04-08T11:47:17;100370.47;;;16.23;47.52
70544;BME280;58097;48.364;-1.224;2023-04-08T11:49:43;100366.13;;;15.98;46.55
70544;BME280;58097;48.364;-1.224;2023-04-08T11:52:09;100370.03;;;15.49;47.00
70544;BME280;58097;48.364;-1.224;2023-04-08T11:54:40;100362.81;;;15.71;48.40
70544;BME280;58097;48.364;-1.224;2023-04-08T11:57:06;100366.06;;;15.83;50.83
70544;BME280;58097;48.364;-1.224;2023-04-08T11:59:34;100358.81;;;15.97;50.40
70544;BME280;58097;48.364;-1.224;2023-04-08T12:02:00;100357.78;;;16.21;49.14
70544;BME280;58097;48.364;-1.224;2023-04-08T12:04:26;100348.00;;;16.39;50.05
70544;BME280;58097;48.364;-1.224;2023-04-08T12:06:51;100359.41;;;16.53;48.83
70544;BME280;58097;48.364;-1.224;2023-04-08T12:09:17;100360.09;;;16.55;48.59
70544;BME280;58097;48.364;-1.224;2023-04-08T12:11:42;100357.59;;;16.60;45.67
70544;BME280;58097;48.364;-1.224;2023-04-08T12:14:08;100352.25;;;16.73;45.31
70544;BME280;58097;48.364;-1.224;2023-04-08T12:16:33;100352.25;;;16.73;46.17
70544;BME280;58097;48.364;-1.224;2023-04-08T12:18:59;100353.69;;;16.46;45.07
70544;BME280;58097;48.364;-1.224;2023-04-08T12:21:24;100359.41;;;16.53;47.20
70544;BME280;58097;48.364;-1.224;2023-04-08T12:23:51;100346.34;;;16.30;43.99
70544;BME280;58097;48.364;-1.224;2023-04-08T12:26:17;100342.59;;;16.00;46.28
70544;BME280;58097;48.364;-1.224;2023-04-08T12:28:43;100341.28;;;16.11;47.39
70544;BME280;58097;48.364;-1.224;2023-04-08T12:31:10;100333.75;;;16.20;45.86
70544;BME280;58097;48.364;-1.224;2023-04-08T12:33:35;100345.19;;;16.25;44.25
70544;BME280;58097;48.364;-1.224;2023-04-08T12:36:00;100335.88;;;16.09;44.50
70544;BME280;58097;48.364;-1.224;2023-04-08T12:38:26;100330.63;;;16.15;46.12
70544;BME280;58097;48.364;-1.224;2023-04-08T12:40:52;100333.81;;;16.49;48.00
70544;BME280;58097;48.364;-1.224;2023-04-08T12:43:17;100332.75;;;16.65;46.31
70544;BME280;58097;48.364;-1.224;2023-04-08T12:45:42;100339.16;;;16.36;42.67
70544;BME280;58097;48.364;-1.224;2023-04-08T12:48:08;100324.44;;;16.04;43.44
70544;BME280;58097;48.364;-1.224;2023-04-08T12:50:33;100328.28;;;16.26;45.07
70544;BME280;58097;48.364;-1.224;2023-04-08T12:52:59;100322.94;;;16.17;42.52
70544;BME280;58097;48.364;-1.224;2023-04-08T12:55:25;100323.97;;;16.16;43.80
70544;BME280;58097;48.364;-1.224;2023-04-08T12:57:51;100330.09;;;16.19;44.23
70544;BME280;58097;48.364;-1.224;2023-04-08T13:00:16;100319.78;;;16.20;43.80
70544;BME280;58097;48.364;-1.224;2023-04-08T13:02:42;100317.59;;;16.30;45.43
70544;BME280;58097;48.364;-1.224;2023-04-08T13:05:08;100315.06;;;16.58;46.97
70544;BME280;58097;48.364;-1.224;2023-04-08T13:07:34;100316.84;;;16.88;44.88